Time;durP1;ratioP1;P1;durP2;ratioP2;P2;SDS_P1;SDS_P2;PMS_P1;PMS_P2;Temp;Humidity;BMP_temperature;BMP_pressure;BME280_temperature;BME280_humidity;BME280_pressure;Samples;Min_cycle;Max_cycle;Signal;HPM_P1;HPM_P2
2023/10/14 00:01:36;;;;;;;2.40;1.80;;;;;;;;;;4944249;28;19966;-86
2023/10/14 00:04:04;;;;;;;2.97;1.77;;;;;;;;;;4960038;28;20034;-89
2023/10/14 00:06:32;;;;;;;2.15;1.63;;;;;;;;;;4974572;28;20023;-84
2023/10/14 00:08:57;;;;;;;2.67;1.80;;;;;;;;;;4956873;28;20027;-84
2023/10/14 00:11:35;;;;;;;4.03;1.95;;;;;;;;;;4958562;28;20033;-84
2023/10/14 00:14:16;;;;;;;3.97;1.95;;;;;;;;;;4957065;28;20028;-87
2023/10/14 00:16:51;;;;;;;2.30;1.90;;;;;;;;;;4940796;28;20450;-85
2023/10/14 00:19:18;;;;;;;3.58;2.13;;;;;;;;;;4945040;29;20551;-87
2023/10/14 00:21:46;;;;;;;5.38;1.48;;;;;;;;;;4955504;28;20498;-85
2023/10/14 00:24:16;;;;;;;3.55;1.80;;;;;;;;;;4947062;28;20042;-85
2023/10/14 00:26:47;;;;;;;4.07;1.92;;;;;;;;;;4937450;28;20027;-85
2023/10/14 00:31:44;;;;;;;3.13;2.00;;;;;;;;;;4946123;28;20038;-84
2023/10/14 00:34:09;;;;;;;2.78;1.98;;;;;;;;;;4949003;29;20038;-86
2023/10/14 00:36:34;;;;;;;5.00;2.45;;;;;;;;;;4937263;28;20019;-85
2023/10/14 00:39:14;;;;;;;2.78;1.90;;;;;;;;;;4952538;28;20023;-85
2023/10/14 00:41:40;;;;;;;2.80;1.70;;;;;;;;;;4938140;28;20023;-85
2023/10/14 00:44:07;;;;;;;3.65;1.90;;;;;;;;;;4949061;28;20158;-85
2023/10/14 00:46:34;;;;;;;2.90;1.60;;;;;;;;;;4961268;28;20074;-85
2023/10/14 00:49:04;;;;;;;5.45;2.17;;;;;;;;;;4945958;28;20043;-85
2023/10/14 00:51:33;;;;;;;4.70;2.10;;;;;;;;;;4947711;28;20028;-86
2023/10/14 00:54:02;;;;;;;2.38;1.63;;;;;;;;;;4956192;28;20027;-87
2023/10/14 00:56:29;;;;;;;2.50;2.00;;;;;;;;;;4946732;28;20031;-84
2023/10/14 00:58:58;;;;;;;5.82;2.10;;;;;;;;;;4944675;28;20031;-86
2023/10/14 01:01:28;;;;;;;5.25;2.60;;;;;;;;;;4952727;28;20047;-85
2023/10/14 01:03:57;;;;;;;2.67;2.17;;;;;;;;;;4944575;28;20678;-85
2023/10/14 01:06:23;;;;;;;3.72;2.03;;;;;;;;;;4953921;28;20557;-85
2023/10/14 01:08:53;;;;;;;2.55;2.05;;;;;;;;;;4945178;28;20031;-85
2023/10/14 01:11:24;;;;;;;2.38;1.88;;;;;;;;;;4955487;28;20023;-85
2023/10/14 01:13:51;;;;;;;3.20;2.45;;;;;;;;;;4952250;28;20027;-87
2023/10/14 01:16:17;;;;;;;2.20;1.90;;;;;;;;;;4969994;28;20019;-85
2023/10/14 01:18:46;;;;;;;3.58;2.20;;;;;;;;;;4946888;28;20086;-85
2023/10/14 01:21:12;;;;;;;2.33;1.80;;;;;;;;;;4949521;28;20035;-86
2023/10/14 01:23:38;;;;;;;7.05;2.30;;;;;;;;;;4963854;28;20709;-86
2023/10/14 01:26:05;;;;;;;3.67;2.15;;;;;;;;;;4948477;28;20078;-85
2023/10/14 01:28:31;;;;;;;6.45;2.42;;;;;;;;;;4951439;28;20512;-86
2023/10/14 01:31:17;;;;;;;6.00;2.30;;;;;;;;;;4950246;28;20035;-86
2023/10/14 01:33:43;;;;;;;3.88;2.75;;;;;;;;;;4954953;28;20438;-87
2023/10/14 01:36:08;;;;;;;4.25;2.60;;;;;;;;;;4954491;28;20154;-85
2023/10/14 01:38:35;;;;;;;5.00;2.67;;;;;;;;;;4966542;28;20030;-86
2023/10/14 01:41:04;;;;;;;2.67;2.28;;;;;;;;;;4946012;28;20039;-84
2023/10/14 01:43:36;;;;;;;5.10;2.80;;;;;;;;;;4962932;28;20028;-85
2023/10/14 01:46:08;;;;;;;8.10;2.55;;;;;;;;;;4952139;28;20536;-85
2023/10/14 01:48:38;;;;;;;7.60;3.00;;;;;;;;;;4955318;28;20885;-86
2023/10/14 01:51:04;;;;;;;3.50;2.88;;;;;;;;;;4953108;28;20074;-84
2023/10/14 01:53:36;;;;;;;4.30;2.65;;;;;;;;;;4954421;28;20029;-86
2023/10/14 01:56:02;;;;;;;7.57;2.47;;;;;;;;;;4945001;28;20024;-84
2023/10/14 01:58:36;;;;;;;4.55;2.65;;;;;;;;;;4951459;28;20363;-84
2023/10/14 02:01:11;;;;;;;4.25;2.55;;;;;;;;;;4954512;28;20390;-86
2023/10/14 02:03:54;;;;;;;4.95;3.03;;;;;;;;;;4954369;28;20027;-84
2023/10/14 02:06:27;;;;;;;4.85;2.63;;;;;;;;;;4951759;28;20110;-84
2023/10/14 02:08:54;;;;;;;6.60;2.40;;;;;;;;;;4953883;28;20396;-84
2023/10/14 02:11:21;;;;;;;3.80;2.47;;;;;;;;;;4954505;28;20070;-85
2023/10/14 02:13:52;;;;;;;5.40;2.70;;;;;;;;;;4953308;28;20034;-85
2023/10/14 02:16:24;;;;;;;4.97;3.58;;;;;;;;;;4953640;28;20027;-86
2023/10/14 02:18:50;;;;;;;2.83;2.00;;;;;;;;;;4952444;28;20031;-86
2023/10/14 02:21:18;;;;;;;4.07;2.75;;;;;;;;;;4954413;29;20684;-84
2023/10/14 02:23:44;;;;;;;3.75;2.40;;;;;;;;;;4953465;28;20034;-85
2023/10/14 02:29:15;;;;;;;;;;;;;;;;;;4948216;28;20047;-86
2023/10/14 02:31:43;;;;;;;4.40;2.47;;;;;;;;;;4938058;28;20009;-86
2023/10/14 02:34:09;;;;;;;3.90;2.40;;;;;;;;;;4952263;28;20031;-88
2023/10/14 02:36:41;;;;;;;4.28;2.20;;;;;;;;;;4955612;28;20023;-87
2023/10/14 02:39:16;;;;;;;3.58;2.90;;;;;;;;;;4958888;29;20042;-86
2023/10/14 02:41:58;;;;;;;3.85;2.85;;;;;;;;;;4960054;28;20505;-88
2023/10/14 02:44:43;;;;;;;3.20;2.38;;;;;;;;;;4949567;29;20098;-84
2023/10/14 02:47:09;;;;;;;6.15;2.70;;;;;;;;;;4953451;28;20027;-84
2023/10/14 02:49:37;;;;;;;3.97;2.55;;;;;;;;;;4953156;28;20026;-85
2023/10/14 02:52:12;;;;;;;4.65;2.72;;;;;;;;;;4969182;28;20691;-85
2023/10/14 02:54:41;;;;;;;8.18;2.97;;;;;;;;;;4963150;28;20027;-85
2023/10/14 02:59:54;;;;;;;3.03;2.17;;;;;;;;;;4951409;28;20126;-85
2023/10/14 03:07:33;;;;;;;4.20;2.90;;;;;;;;;;4949268;28;20110;-85
2023/10/14 03:10:09;;;;;;;4.68;2.20;;;;;;;;;;4971435;28;20035;-85
2023/10/14 03:12:38;;;;;;;4.18;2.35;;;;;;;;;;4957170;28;20031;-85
2023/10/14 03:15:04;;;;;;;5.88;2.88;;;;;;;;;;4947916;28;20086;-85
2023/10/14 03:17:40;;;;;;;3.67;2.85;;;;;;;;;;4957934;28;20027;-85
2023/10/14 03:20:34;;;;;;;3.63;2.60;;;;;;;;;;4954080;28;20478;-87
2023/10/14 03:22:59;;;;;;;4.40;2.72;;;;;;;;;;4955900;28;20062;-86
2023/10/14 03:25:25;;;;;;;3.75;2.47;;;;;;;;;;4956461;28;20019;-86
2023/10/14 03:28:13;;;;;;;7.63;3.05;;;;;;;;;;4956628;28;20025;-87
2023/10/14 03:30:46;;;;;;;6.55;2.88;;;;;;;;;;4961264;28;20045;-85
2023/10/14 03:33:14;;;;;;;5.15;2.88;;;;;;;;;;4958321;28;20031;-87
2023/10/14 03:35:42;;;;;;;5.13;2.53;;;;;;;;;;4960847;28;20486;-85
2023/10/14 03:38:24;;;;;;;4.68;2.50;;;;;;;;;;4952397;28;20058;-84
2023/10/14 03:43:43;;;;;;;5.32;2.47;;;;;;;;;;4956081;28;19941;-85
2023/10/14 03:46:12;;;;;;;5.55;2.83;;;;;;;;;;4947871;28;20028;-84
2023/10/14 03:48:48;;;;;;;5.82;2.67;;;;;;;;;;4972531;28;20038;-86
2023/10/14 03:51:24;;;;;;;8.07;2.65;;;;;;;;;;4958383;28;20035;-85
2023/10/14 03:54:07;;;;;;;5.03;3.15;;;;;;;;;;4986924;28;20059;-90
2023/10/14 03:56:34;;;;;;;4.85;2.85;;;;;;;;;;4961805;28;20031;-85
2023/10/14 03:59:01;;;;;;;5.30;2.80;;;;;;;;;;4957196;28;20030;-85
2023/10/14 04:01:43;;;;;;;4.63;2.60;;;;;;;;;;4956550;28;20130;-85
2023/10/14 04:04:18;;;;;;;5.30;2.47;;;;;;;;;;4955012;28;20030;-87
2023/10/14 04:06:55;;;;;;;4.05;2.97;;;;;;;;;;4947274;28;20047;-85
2023/10/14 04:09:24;;;;;;;5.93;2.90;;;;;;;;;;4959382;28;20057;-86
2023/10/14 04:11:57;;;;;;;4.43;2.58;;;;;;;;;;4970756;28;20051;-85
2023/10/14 04:14:27;;;;;;;6.10;2.60;;;;;;;;;;4949773;29;20050;-85
2023/10/14 04:17:10;;;;;;;4.35;2.08;;;;;;;;;;4963477;28;20035;-85
2023/10/14 04:19:46;;;;;;;4.57;2.15;;;;;;;;;;4969716;28;20035;-84
2023/10/14 04:25:07;;;;;;;5.45;1.70;;;;;;;;;;4955973;28;20622;-85
2023/10/14 04:27:36;;;;;;;1.55;1.45;;;;;;;;;;4964523;28;20556;-84
2023/10/14 04:30:12;;;;;;;6.05;2.30;;;;;;;;;;4960834;28;20027;-83
2023/10/14 04:32:42;;;;;;;2.72;2.10;;;;;;;;;;4945850;29;20034;-84
2023/10/14 04:35:08;;;;;;;2.65;1.92;;;;;;;;;;4955180;28;20090;-83
2023/10/14 04:37:51;;;;;;;3.75;1.90;;;;;;;;;;4954698;28;20031;-83
2023/10/14 04:46:05;;;;;;;3.90;1.40;;;;;;;;;;4947028;28;20110;-83
2023/10/14 04:51:06;;;;;;;2.83;1.88;;;;;;;;;;4952091;29;20074;-83
2023/10/14 04:53:31;;;;;;;2.40;2.20;;;;;;;;;;4967483;28;20122;-83
2023/10/14 04:56:04;;;;;;;3.38;2.10;;;;;;;;;;4947597;28;20130;-83
2023/10/14 04:58:32;;;;;;;2.20;1.52;;;;;;;;;;4946011;28;20692;-83
2023/10/14 05:01:00;;;;;;;2.85;1.50;;;;;;;;;;4954388;28;20126;-83
2023/10/14 05:03:29;;;;;;;3.42;1.90;;;;;;;;;;4953685;29;20497;-83
2023/10/14 05:06:14;;;;;;;3.75;2.05;;;;;;;;;;4954004;28;20405;-83
2023/10/14 05:08:44;;;;;;;2.80;1.70;;;;;;;;;;4949015;29;20482;-84
2023/10/14 05:11:13;;;;;;;4.43;1.90;;;;;;;;;;4954828;28;20477;-84
2023/10/14 05:13:42;;;;;;;3.92;2.03;;;;;;;;;;4958263;28;20023;-85
2023/10/14 05:16:15;;;;;;;2.33;1.67;;;;;;;;;;4951505;28;20106;-83
2023/10/14 05:18:58;;;;;;;4.72;2.05;;;;;;;;;;4969524;28;20505;-84
2023/10/14 05:21:42;;;;;;;5.85;2.10;;;;;;;;;;4953848;28;20070;-83
2023/10/14 05:24:09;;;;;;;2.42;1.70;;;;;;;;;;4951861;29;20058;-84
2023/10/14 05:26:46;;;;;;;3.47;2.13;;;;;;;;;;4950794;28;20043;-84
2023/10/14 05:29:19;;;;;;;4.15;2.15;;;;;;;;;;4946664;28;20534;-83
2023/10/14 05:31:50;;;;;;;4.78;2.35;;;;;;;;;;4969515;28;20511;-84
2023/10/14 05:34:17;;;;;;;4.40;2.22;;;;;;;;;;4950923;28;20027;-84
2023/10/14 05:36:44;;;;;;;6.50;2.55;;;;;;;;;;4952501;29;20031;-85
2023/10/14 05:39:10;;;;;;;5.05;2.28;;;;;;;;;;4950953;28;20023;-83
2023/10/14 05:41:38;;;;;;;4.18;2.30;;;;;;;;;;4953026;28;20077;-86
2023/10/14 05:44:05;;;;;;;3.28;2.25;;;;;;;;;;4953920;28;20034;-83
2023/10/14 05:46:31;;;;;;;6.32;2.10;;;;;;;;;;4953788;28;20161;-83
2023/10/14 05:48:56;;;;;;;3.03;1.75;;;;;;;;;;4953638;28;20165;-83
2023/10/14 05:51:22;;;;;;;3.58;2.30;;;;;;;;;;4953195;28;20019;-84
2023/10/14 05:53:48;;;;;;;3.40;1.65;;;;;;;;;;4945492;28;20023;-84
2023/10/14 05:56:14;;;;;;;2.53;1.85;;;;;;;;;;4951294;28;20027;-84
2023/10/14 05:58:45;;;;;;;5.93;1.83;;;;;;;;;;4967514;28;20485;-84
2023/10/14 06:01:13;;;;;;;2.92;1.77;;;;;;;;;;4968261;28;20200;-83
2023/10/14 06:03:41;;;;;;;1.90;1.73;;;;;;;;;;4953826;28;20046;-84
2023/10/14 06:06:10;;;;;;;3.15;1.52;;;;;;;;;;4953263;28;20051;-82
2023/10/14 06:08:39;;;;;;;2.50;1.77;;;;;;;;;;4960560;28;20027;-83
2023/10/14 06:11:05;;;;;;;2.28;1.52;;;;;;;;;;4951972;28;20034;-83
2023/10/14 06:13:32;;;;;;;4.80;1.65;;;;;;;;;;4945057;28;20474;-82
2023/10/14 06:16:00;;;;;;;2.33;1.63;;;;;;;;;;4946029;28;20035;-85
2023/10/14 06:18:26;;;;;;;3.20;1.60;;;;;;;;;;4952171;28;20027;-85
2023/10/14 06:20:53;;;;;;;3.97;1.52;;;;;;;;;;4953238;28;20046;-85
2023/10/14 06:23:18;;;;;;;2.95;1.48;;;;;;;;;;4951654;28;20469;-84
2023/10/14 06:25:44;;;;;;;1.23;1.13;;;;;;;;;;4949507;28;20024;-84
2023/10/14 06:28:10;;;;;;;1.15;1.05;;;;;;;;;;4949533;28;20034;-84
2023/10/14 06:30:35;;;;;;;1.23;1.10;;;;;;;;;;4946171;28;20027;-85
2023/10/14 06:33:04;;;;;;;5.88;1.23;;;;;;;;;;4968960;28;20027;-84
2023/10/14 06:35:34;;;;;;;1.90;1.00;;;;;;;;;;4953397;29;20027;-85
2023/10/14 06:38:00;;;;;;;3.28;1.83;;;;;;;;;;4952856;28;20031;-84
2023/10/14 06:40:32;;;;;;;2.50;1.42;;;;;;;;;;4952159;28;20515;-85
2023/10/14 06:43:00;;;;;;;6.82;1.63;;;;;;;;;;4950065;28;20054;-87
2023/10/14 06:45:31;;;;;;;4.55;1.30;;;;;;;;;;4951686;28;20601;-86
2023/10/14 06:47:57;;;;;;;4.07;1.30;;;;;;;;;;4954350;28;20114;-85
2023/10/14 06:50:26;;;;;;;2.15;1.30;;;;;;;;;;4953447;28;20062;-85
2023/10/14 06:53:00;;;;;;;1.42;1.08;;;;;;;;;;4967026;28;20042;-84
2023/10/14 06:55:37;;;;;;;2.70;0.93;;;;;;;;;;4953104;28;20523;-86
2023/10/14 06:58:05;;;;;;;1.08;0.90;;;;;;;;;;4951927;28;20106;-85
2023/10/14 07:00:31;;;;;;;1.15;1.08;;;;;;;;;;4952724;28;20019;-84
2023/10/14 07:02:59;;;;;;;1.83;1.02;;;;;;;;;;4952544;28;20046;-84
2023/10/14 07:05:28;;;;;;;0.75;0.75;;;;;;;;;;4945003;28;20549;-87
2023/10/14 07:07:55;;;;;;;6.40;1.05;;;;;;;;;;4966753;28;20051;-85
2023/10/14 07:10:27;;;;;;;1.10;0.93;;;;;;;;;;4967481;28;20023;-87
2023/10/14 07:12:57;;;;;;;5.28;1.20;;;;;;;;;;4955199;29;20023;-86
2023/10/14 07:15:23;;;;;;;1.00;0.90;;;;;;;;;;4969245;28;20054;-84
2023/10/14 07:17:48;;;;;;;0.70;0.70;;;;;;;;;;4947672;28;20031;-85
2023/10/14 07:20:14;;;;;;;5.32;1.20;;;;;;;;;;4953118;28;20031;-86
2023/10/14 07:22:42;;;;;;;0.93;0.90;;;;;;;;;;4954922;28;20023;-86
2023/10/14 07:25:09;;;;;;;3.85;1.23;;;;;;;;;;4955153;28;20421;-86
2023/10/14 07:27:36;;;;;;;5.05;0.77;;;;;;;;;;4972212;28;20031;-88
2023/10/14 07:30:36;;;;;;;1.13;1.02;;;;;;;;;;4959670;28;20170;-84
2023/10/14 07:32:55;;;;;;;0.88;0.85;;;;;;;;;;4950780;29;20031;-84
2023/10/14 07:35:21;;;;;;;0.50;0.50;;;;;;;;;;4969432;28;20167;-84
2023/10/14 07:37:51;;;;;;;0.38;0.38;;;;;;;;;;4949652;28;20027;-85
2023/10/14 07:40:23;;;;;;;2.30;1.30;;;;;;;;;;4958877;28;20035;-83
2023/10/14 07:43:05;;;;;;;2.38;0.70;;;;;;;;;;4971205;28;20039;-83
2023/10/14 07:45:35;;;;;;;;;;;;;;;;;;4973116;28;20066;-84
2023/10/14 07:48:08;;;;;;;1.27;1.05;;;;;;;;;;4947586;29;20002;-84
2023/10/14 07:50:38;;;;;;;1.42;0.90;;;;;;;;;;4957405;28;20027;-86
2023/10/14 07:53:08;;;;;;;2.35;0.75;;;;;;;;;;4946496;28;20414;-84
2023/10/14 07:55:37;;;;;;;0.50;0.50;;;;;;;;;;4940303;28;20023;-84
2023/10/14 07:58:08;;;;;;;0.88;0.68;;;;;;;;;;4963984;28;20027;-85
2023/10/14 08:00:37;;;;;;;2.45;1.00;;;;;;;;;;4952770;28;20074;-85
2023/10/14 08:03:06;;;;;;;2.38;1.10;;;;;;;;;;4943899;28;20038;-84
2023/10/14 08:05:34;;;;;;;1.15;0.88;;;;;;;;;;4955364;28;20019;-85
2023/10/14 08:08:05;;;;;;;1.48;0.80;;;;;;;;;;4954095;28;20027;-85
2023/10/14 08:10:31;;;;;;;1.92;0.98;;;;;;;;;;4953210;28;20070;-85
2023/10/14 08:12:57;;;;;;;2.00;1.52;;;;;;;;;;4950861;29;20074;-84
2023/10/14 08:15:22;;;;;;;3.70;1.73;;;;;;;;;;4954459;28;20027;-85
2023/10/14 08:17:48;;;;;;;1.88;1.23;;;;;;;;;;4969844;28;20489;-84
2023/10/14 08:20:16;;;;;;;2.30;1.08;;;;;;;;;;4955307;28;20064;-86
2023/10/14 08:22:46;;;;;;;1.80;0.93;;;;;;;;;;4961170;28;20054;-84
2023/10/14 08:25:12;;;;;;;2.63;1.20;;;;;;;;;;4952388;28;20597;-84
2023/10/14 08:27:41;;;;;;;1.15;0.73;;;;;;;;;;4970489;28;20031;-85
2023/10/14 08:30:13;;;;;;;2.72;1.00;;;;;;;;;;4962401;28;20031;-85
2023/10/14 08:32:42;;;;;;;2.28;0.77;;;;;;;;;;4970392;28;20024;-86
2023/10/14 08:35:17;;;;;;;1.60;0.93;;;;;;;;;;4946903;28;20479;-85
2023/10/14 08:37:47;;;;;;;1.23;0.75;;;;;;;;;;4953488;29;20687;-85
2023/10/14 08:40:26;;;;;;;1.50;0.82;;;;;;;;;;4954704;28;20066;-86
2023/10/14 08:43:05;;;;;;;0.80;0.77;;;;;;;;;;4963446;28;20024;-85
2023/10/14 08:45:36;;;;;;;1.45;0.75;;;;;;;;;;4952942;28;20548;-84
2023/10/14 08:48:05;;;;;;;0.83;0.77;;;;;;;;;;4949122;28;20054;-84
2023/10/14 08:50:33;;;;;;;2.60;1.05;;;;;;;;;;4952426;28;20162;-85
2023/10/14 08:53:04;;;;;;;1.55;1.02;;;;;;;;;;4955798;28;20027;-87
2023/10/14 08:55:34;;;;;;;0.85;0.63;;;;;;;;;;4945712;28;20516;-86
2023/10/14 08:58:02;;;;;;;1.15;0.50;;;;;;;;;;4954769;28;20421;-84
2023/10/14 09:00:29;;;;;;;0.20;0.20;;;;;;;;;;4953846;28;20023;-84
2023/10/14 09:02:56;;;;;;;0.30;0.30;;;;;;;;;;4953586;28;20042;-83
2023/10/14 09:05:23;;;;;;;3.42;0.50;;;;;;;;;;4954556;28;20086;-85
2023/10/14 09:07:49;;;;;;;0.30;0.20;;;;;;;;;;4953453;28;20108;-84
2023/10/14 09:10:20;;;;;;;1.17;0.70;;;;;;;;;;4971662;28;20037;-86
2023/10/14 09:12:57;;;;;;;0.32;0.20;;;;;;;;;;4947952;28;20027;-84
2023/10/14 09:15:32;;;;;;;1.38;0.50;;;;;;;;;;4954546;28;20067;-84
2023/10/14 09:17:58;;;;;;;0.30;0.30;;;;;;;;;;4947180;28;20046;-85
2023/10/14 09:20:35;;;;;;;0.63;0.63;;;;;;;;;;4970391;28;20039;-84
2023/10/14 09:23:32;;;;;;;0.28;0.28;;;;;;;;;;4953555;28;20031;-85
2023/10/14 09:26:00;;;;;;;0.50;0.50;;;;;;;;;;4954787;28;20039;-86
2023/10/14 09:28:27;;;;;;;0.40;0.40;;;;;;;;;;4945220;28;20032;-86
2023/10/14 09:30:57;;;;;;;0.43;0.40;;;;;;;;;;4953802;28;20027;-86
2023/10/14 09:33:31;;;;;;;0.73;0.73;;;;;;;;;;4955174;28;20042;-85
2023/10/14 09:36:11;;;;;;;0.22;0.22;;;;;;;;;;4953909;28;20030;-85
2023/10/14 09:38:38;;;;;;;0.60;0.60;;;;;;;;;;4954597;28;20031;-84
2023/10/14 09:41:07;;;;;;;0.60;0.60;;;;;;;;;;4952317;28;20031;-84
2023/10/14 09:43:34;;;;;;;0.50;0.50;;;;;;;;;;4968425;28;20030;-85
2023/10/14 09:46:03;;;;;;;0.60;0.60;;;;;;;;;;4962463;28;20031;-88
2023/10/14 09:48:34;;;;;;;0.98;0.80;;;;;;;;;;4945591;28;20035;-85
2023/10/14 09:51:02;;;;;;;0.60;0.60;;;;;;;;;;4969983;28;20055;-86
2023/10/14 09:53:32;;;;;;;0.77;0.73;;;;;;;;;;4957777;28;20139;-85
2023/10/14 09:56:07;;;;;;;3.03;1.00;;;;;;;;;;4958107;28;20046;-85
2023/10/14 09:58:41;;;;;;;1.25;0.63;;;;;;;;;;4953728;29;20031;-86
2023/10/14 10:01:11;;;;;;;0.60;0.60;;;;;;;;;;4951431;28;20059;-85
2023/10/14 10:03:49;;;;;;;0.60;0.30;;;;;;;;;;4959075;28;20026;-85
2023/10/14 10:06:35;;;;;;;0.45;0.30;;;;;;;;;;4973434;28;20106;-86
2023/10/14 10:09:27;;;;;;;0.40;0.40;;;;;;;;;;4972802;28;20023;-87
2023/10/14 10:11:55;;;;;;;0.50;0.50;;;;;;;;;;4958741;28;20019;-85
2023/10/14 10:14:22;;;;;;;0.50;0.50;;;;;;;;;;4972594;28;20269;-86
2023/10/14 10:16:50;;;;;;;0.35;0.35;;;;;;;;;;4948918;28;20078;-87
2023/10/14 10:19:16;;;;;;;0.40;0.40;;;;;;;;;;4972142;28;20030;-87
2023/10/14 10:22:17;;;;;;;0.77;0.40;;;;;;;;;;4957121;28;20447;-85
2023/10/14 10:24:45;;;;;;;0.30;0.30;;;;;;;;;;4955726;29;20031;-86
2023/10/14 10:27:11;;;;;;;0.43;0.43;;;;;;;;;;4971331;28;20031;-86
2023/10/14 10:29:55;;;;;;;0.38;0.38;;;;;;;;;;4957238;28;20030;-85
2023/10/14 10:32:31;;;;;;;0.85;0.65;;;;;;;;;;4971098;28;20106;-85
2023/10/14 10:35:05;;;;;;;0.30;0.30;;;;;;;;;;4951549;29;20027;-85
2023/10/14 10:37:34;;;;;;;0.32;0.32;;;;;;;;;;4956004;28;20039;-86
2023/10/14 10:40:05;;;;;;;0.25;0.22;;;;;;;;;;4956049;28;20030;-86
2023/10/14 10:42:31;;;;;;;4.47;0.50;;;;;;;;;;4957578;28;20019;-86
2023/10/14 10:44:57;;;;;;;0.25;0.15;;;;;;;;;;4956549;28;20508;-85
2023/10/14 10:47:23;;;;;;;0.22;0.22;;;;;;;;;;4955523;28;20030;-85
2023/10/14 10:49:48;;;;;;;0.45;0.40;;;;;;;;;;4953610;28;20031;-85
2023/10/14 10:52:14;;;;;;;0.50;0.50;;;;;;;;;;4957803;28;20035;-85
2023/10/14 10:54:44;;;;;;;0.40;0.40;;;;;;;;;;4957245;28;20083;-85
2023/10/14 10:57:11;;;;;;;0.38;0.38;;;;;;;;;;4961402;28;20206;-85
2023/10/14 10:59:37;;;;;;;0.43;0.43;;;;;;;;;;4975443;28;20058;-87
2023/10/14 11:02:08;;;;;;;0.90;0.52;;;;;;;;;;4952611;28;20054;-86
2023/10/14 11:04:34;;;;;;;0.52;0.52;;;;;;;;;;4952953;29;20711;-83
2023/10/14 11:07:00;;;;;;;0.52;0.52;;;;;;;;;;4949408;28;20107;-84
2023/10/14 11:09:29;;;;;;;0.40;0.40;;;;;;;;;;4962671;29;20027;-85
2023/10/14 11:12:02;;;;;;;0.40;0.40;;;;;;;;;;4962827;28;20116;-84
2023/10/14 11:14:27;;;;;;;0.40;0.40;;;;;;;;;;4967276;28;20027;-85
2023/10/14 11:16:57;;;;;;;0.80;0.40;;;;;;;;;;4965246;28;20039;-85
2023/10/14 11:19:26;;;;;;;0.38;0.38;;;;;;;;;;4960001;28;20043;-85
2023/10/14 11:21:52;;;;;;;0.60;0.60;;;;;;;;;;4956789;28;20419;-85
2023/10/14 11:24:18;;;;;;;0.73;0.40;;;;;;;;;;4967946;28;20532;-86
2023/10/14 11:26:44;;;;;;;1.27;0.43;;;;;;;;;;4949573;28;20071;-85
2023/10/14 11:29:11;;;;;;;0.38;0.38;;;;;;;;;;4959001;28;20049;-84
2023/10/14 11:31:39;;;;;;;0.32;0.32;;;;;;;;;;4958748;28;20030;-85
2023/10/14 11:34:06;;;;;;;0.30;0.30;;;;;;;;;;4960559;28;20736;-85
2023/10/14 11:36:32;;;;;;;0.30;0.30;;;;;;;;;;4966651;28;20024;-86
2023/10/14 11:39:00;;;;;;;1.65;0.47;;;;;;;;;;4973760;28;20034;-86
2023/10/14 11:41:26;;;;;;;0.47;0.20;;;;;;;;;;4945166;28;20027;-86
2023/10/14 11:43:52;;;;;;;0.63;0.40;;;;;;;;;;4958247;28;20043;-86
2023/10/14 11:46:18;;;;;;;0.30;0.30;;;;;;;;;;4957935;28;20115;-86
2023/10/14 11:48:47;;;;;;;0.65;0.55;;;;;;;;;;4958258;28;20114;-86
2023/10/14 11:51:19;;;;;;;0.50;0.50;;;;;;;;;;4956720;28;20164;-85
2023/10/14 11:53:46;;;;;;;;;;;;;;;;;;4956960;28;20054;-85
2023/10/14 11:56:15;;;;;;;0.65;0.40;;;;;;;;;;4956559;28;20012;-87
2023/10/14 11:58:41;;;;;;;0.40;0.40;;;;;;;;;;4956932;28;20102;-86
2023/10/14 12:01:09;;;;;;;0.40;0.40;;;;;;;;;;4957639;28;20114;-86
2023/10/14 12:03:34;;;;;;;0.60;0.60;;;;;;;;;;4976319;28;20062;-86
2023/10/14 12:06:01;;;;;;;0.40;0.40;;;;;;;;;;4954027;28;20059;-86
2023/10/14 12:08:38;;;;;;;2.13;0.70;;;;;;;;;;4957745;28;20030;-87
2023/10/14 12:11:05;;;;;;;3.50;0.65;;;;;;;;;;4946563;28;20110;-87
2023/10/14 12:13:31;;;;;;;0.43;0.43;;;;;;;;;;4968858;28;20042;-86
2023/10/14 12:15:57;;;;;;;0.80;0.50;;;;;;;;;;4957713;28;20081;-85
2023/10/14 12:18:22;;;;;;;0.32;0.32;;;;;;;;;;4958430;28;20027;-88
2023/10/14 12:20:49;;;;;;;0.50;0.50;;;;;;;;;;4963102;28;20057;-85
2023/10/14 12:23:19;;;;;;;0.60;0.60;;;;;;;;;;4959801;28;20031;-86
2023/10/14 12:25:48;;;;;;;0.50;0.50;;;;;;;;;;4955206;28;20654;-86
2023/10/14 12:28:25;;;;;;;2.17;0.68;;;;;;;;;;4955526;28;20117;-85
2023/10/14 12:30:58;;;;;;;0.55;0.55;;;;;;;;;;4955752;28;20019;-85
2023/10/14 12:33:31;;;;;;;1.98;0.35;;;;;;;;;;4972080;28;20019;-86
2023/10/14 12:35:58;;;;;;;0.47;0.47;;;;;;;;;;4973199;28;20090;-87
2023/10/14 12:38:27;;;;;;;0.40;0.40;;;;;;;;;;4955383;28;20023;-87
2023/10/14 12:40:53;;;;;;;1.42;0.50;;;;;;;;;;4971299;28;20027;-86
2023/10/14 12:43:28;;;;;;;0.50;0.50;;;;;;;;;;4956900;28;20106;-87
2023/10/14 12:48:44;;;;;;;0.30;0.30;;;;;;;;;;4949770;29;20110;-85
2023/10/14 12:51:17;;;;;;;1.38;0.52;;;;;;;;;;4955808;28;20046;-86
2023/10/14 12:53:47;;;;;;;0.32;0.32;;;;;;;;;;4971879;28;20027;-87
2023/10/14 12:56:17;;;;;;;0.45;0.45;;;;;;;;;;4957583;28;20102;-86
2023/10/14 12:58:45;;;;;;;0.30;0.30;;;;;;;;;;4973408;28;20483;-85
2023/10/14 13:01:17;;;;;;;0.20;0.20;;;;;;;;;;4955308;28;20449;-86
2023/10/14 13:03:46;;;;;;;0.50;0.50;;;;;;;;;;4955763;28;20023;-87
2023/10/14 13:06:14;;;;;;;0.50;0.50;;;;;;;;;;4958008;28;20386;-86
2023/10/14 13:08:40;;;;;;;0.30;0.30;;;;;;;;;;4964068;28;20529;-86
2023/10/14 13:11:05;;;;;;;1.05;0.52;;;;;;;;;;4968807;28;20073;-85
2023/10/14 13:13:31;;;;;;;0.60;0.60;;;;;;;;;;4972655;28;20370;-87
2023/10/14 13:15:56;;;;;;;2.25;0.45;;;;;;;;;;4953601;28;20023;-86
2023/10/14 13:18:24;;;;;;;0.45;0.45;;;;;;;;;;4967289;28;20041;-88
2023/10/14 13:20:49;;;;;;;0.50;0.50;;;;;;;;;;4969153;28;20035;-85
2023/10/14 13:23:15;;;;;;;0.50;0.50;;;;;;;;;;4965972;28;20054;-85
2023/10/14 13:25:40;;;;;;;0.20;0.20;;;;;;;;;;4951972;28;20031;-87
2023/10/14 13:28:09;;;;;;;0.85;0.47;;;;;;;;;;4956920;28;20041;-86
2023/10/14 13:30:36;;;;;;;2.35;0.73;;;;;;;;;;4980157;28;20117;-85
2023/10/14 13:33:03;;;;;;;0.43;0.43;;;;;;;;;;4969731;28;20030;-86
2023/10/14 13:35:31;;;;;;;0.40;0.40;;;;;;;;;;4953933;28;20023;-86
2023/10/14 13:37:56;;;;;;;1.42;0.60;;;;;;;;;;4970182;28;20030;-88
2023/10/14 13:40:22;;;;;;;0.47;0.47;;;;;;;;;;4954324;28;20197;-86
2023/10/14 13:42:52;;;;;;;0.60;0.60;;;;;;;;;;4966143;28;20094;-86
2023/10/14 13:45:19;;;;;;;3.40;0.70;;;;;;;;;;4949807;28;20035;-87
2023/10/14 13:47:45;;;;;;;1.42;0.47;;;;;;;;;;4949456;28;20036;-88
2023/10/14 13:50:11;;;;;;;0.52;0.50;;;;;;;;;;4954321;28;20051;-85
2023/10/14 13:52:38;;;;;;;0.45;0.45;;;;;;;;;;4963125;28;20047;-86
2023/10/14 13:55:04;;;;;;;0.47;0.47;;;;;;;;;;4966010;28;20172;-87
2023/10/14 13:57:32;;;;;;;0.60;0.60;;;;;;;;;;4962026;28;20106;-86
2023/10/14 13:59:57;;;;;;;2.60;0.93;;;;;;;;;;4956556;28;20038;-87
2023/10/14 14:02:23;;;;;;;1.02;0.93;;;;;;;;;;4953258;28;20020;-88
2023/10/14 14:04:49;;;;;;;1.63;0.77;;;;;;;;;;4957230;28;20030;-87
2023/10/14 14:07:15;;;;;;;0.73;0.70;;;;;;;;;;4957266;28;20018;-86
2023/10/14 14:09:40;;;;;;;2.17;1.08;;;;;;;;;;4960030;28;20098;-87
2023/10/14 14:12:07;;;;;;;0.60;0.60;;;;;;;;;;4955513;28;20035;-87
2023/10/14 14:14:36;;;;;;;2.25;1.50;;;;;;;;;;4977690;28;20450;-87
2023/10/14 14:17:03;;;;;;;2.78;1.70;;;;;;;;;;4950532;28;20057;-86
2023/10/14 14:19:29;;;;;;;5.82;2.67;;;;;;;;;;4955348;28;20106;-87
2023/10/14 14:21:54;;;;;;;1.85;1.35;;;;;;;;;;4969848;28;20062;-86
2023/10/14 14:24:22;;;;;;;2.10;1.27;;;;;;;;;;4962998;28;20038;-86
2023/10/14 14:26:48;;;;;;;1.20;1.10;;;;;;;;;;4945998;28;20034;-87
2023/10/14 14:29:14;;;;;;;3.92;1.33;;;;;;;;;;4959632;28;20413;-87
2023/10/14 14:31:40;;;;;;;1.27;1.20;;;;;;;;;;4957707;28;20032;-87
2023/10/14 14:34:07;;;;;;;0.95;0.90;;;;;;;;;;4955872;28;20030;-87
2023/10/14 14:36:33;;;;;;;3.45;0.98;;;;;;;;;;4948162;28;20055;-86
2023/10/14 14:38:59;;;;;;;0.88;0.88;;;;;;;;;;4951676;28;20027;-86
2023/10/14 14:41:27;;;;;;;3.08;2.20;;;;;;;;;;4956334;28;20051;-86
2023/10/14 14:43:54;;;;;;;1.98;1.73;;;;;;;;;;4971517;28;20031;-86
2023/10/14 14:46:19;;;;;;;4.38;1.70;;;;;;;;;;4953935;28;20028;-85
2023/10/14 14:48:45;;;;;;;1.50;1.40;;;;;;;;;;4962495;28;20039;-85
2023/10/14 14:51:11;;;;;;;2.28;1.38;;;;;;;;;;4950976;28;20504;-86
2023/10/14 14:53:36;;;;;;;2.70;1.23;;;;;;;;;;4956929;28;20486;-86
2023/10/14 14:56:09;;;;;;;1.00;0.68;;;;;;;;;;4951640;28;20071;-87
2023/10/14 14:58:36;;;;;;;2.50;1.30;;;;;;;;;;4965794;28;20027;-86
2023/10/14 15:01:01;;;;;;;3.42;1.50;;;;;;;;;;4966540;28;20063;-86
2023/10/14 15:03:26;;;;;;;2.20;1.60;;;;;;;;;;4994738;28;20035;-86
2023/10/14 15:05:52;;;;;;;2.58;1.52;;;;;;;;;;4960501;28;20047;-86
2023/10/14 15:08:18;;;;;;;2.78;1.50;;;;;;;;;;4970136;28;20031;-87
2023/10/14 15:10:46;;;;;;;3.03;1.73;;;;;;;;;;4977501;28;20035;-87
2023/10/14 15:13:14;;;;;;;1.42;1.20;;;;;;;;;;4965069;28;20397;-87
2023/10/14 15:15:43;;;;;;;2.30;1.23;;;;;;;;;;4956627;28;20476;-87
2023/10/14 15:18:10;;;;;;;0.70;0.70;;;;;;;;;;4976786;28;20659;-86
2023/10/14 15:20:36;;;;;;;3.13;0.98;;;;;;;;;;4961187;28;20114;-85
2023/10/14 15:23:02;;;;;;;1.13;0.82;;;;;;;;;;4956552;28;20023;-86
2023/10/14 15:25:28;;;;;;;2.17;1.17;;;;;;;;;;4966447;28;20034;-86
2023/10/14 15:27:54;;;;;;;0.80;0.80;;;;;;;;;;4974162;28;20031;-86